• °C
  • Pobieranie danych...
wx


PRINT OUT SECTION, show »

TAF AMD EPBY 230724Z 2307/2406 29010KT 9999 BKN018
TEMPO 2308/2312 29015G25KT 5000 -SHRA BKN014CB
BECMG 2312/2314 CAVOK=

TAF EPGD 230530Z 2306/2406 26012KT 9999 SCT040
BECMG 2306/2309 32014KT
TEMPO 2309/2318 33017G33KT SCT025TCU
BECMG 2317/2318 26006KT=

TAF EPKK 230530Z 2306/2406 26010KT 9999 SCT045
TEMPO 2309/2317 29018G33KT SHRA BKN020CB
TEMPO 2322/2406 2000 BR=

TAF AMD EPKT 230702Z 2307/2406 28010KT 9999 BKN020
TEMPO 2307/2317 29017G30KT -SHRA BKN012
BKN015CB=

TAF EPLL 230530Z 2306/2406 25010KT CAVOK
TEMPO 2309/2318 28015G25KT -SHRASN BKN030CB
PROB40 TEMPO 2310/2318 VRB20G35KT 2000 SHGS BKN014CB=

TAF EPMO 230530Z 2306/2406 27008KT CAVOK
TEMPO 2309/2320 28015G28KT -SHRASN BKN030CB
PROB40 TEMPO 2310/2318 VRB20G30KT 2000 SHGS BKN014CB
PROB30 TEMPO 2312/2316 TSGS=

TAF EPPO 230530Z 2306/2406 29009KT CAVOK
BECMG 2306/2309 29015G25KT
TEMPO 2306/2319 SCT030TCU
PROB40 TEMPO 2307/2318 4000 SHRA BKN009 BKN020CB
BECMG 2317/2320 31006KT
PROB40 TEMPO 2400/2405 4000 BR=

TAF EPRZ 230530Z 2306/2406 26012KT CAVOK
TEMPO 2308/2321 29020G32KT SHRA BKN020CB
TEMPO 2321/2406 2000 BR=

TAF AMD EPSC 230601Z 2306/2406 28011KT 9999 OVC010
BECMG 2307/2309 CAVOK
BECMG 2309/2311 34014KT
TEMPO 2309/2316 32017G31KT SCT030TCU
BECMG 2317/2320 26005KT=

TAF EPWA 230530Z 2306/2406 27008KT CAVOK
TEMPO 2309/2320 28015G28KT -SHRASN BKN030CB
PROB40 TEMPO 2310/2318 VRB20G30KT 2000 SHGS BKN014CB
PROB30 TEMPO 2312/2316 TSGS=

TAF EPWR 230530Z 2306/2406 29010KT CAVOK
BECMG 2306/2309 29015G25KT
TEMPO 2306/2312 4000 SHRA BKN009 BKN020CB
PROB30 TEMPO 2306/2312 TSRA
TEMPO 2312/2318 -SHRA SCT030CB
BECMG 2317/2320 27005KT=



IMGW-PIB Sites